Time;durP1;ratioP1;P1;durP2;ratioP2;P2;SDS_P1;SDS_P2;PMS_P1;PMS_P2;Temp;Humidity;BMP_temperature;BMP_pressure;BME280_temperature;BME280_humidity;BME280_pressure;Samples;Min_cycle;Max_cycle;Signal;HPM_P1;HPM_P2
2023/03/03 00:01:02;;;;;;;27.85;15.50;;;5.50;99.90;;;;;;5057097;28;20148;-84
2023/03/03 00:03:28;;;;;;;28.58;15.57;;;5.40;99.90;;;;;;5040325;28;20037;-85
2023/03/03 00:05:54;;;;;;;25.02;14.48;;;5.40;99.90;;;;;;5040155;28;20469;-85
2023/03/03 00:08:21;;;;;;;34.47;18.33;;;5.40;99.90;;;;;;5040015;28;20029;-86
2023/03/03 00:10:47;;;;;;;29.75;17.02;;;5.40;99.90;;;;;;5056529;28;20044;-85
2023/03/03 00:13:19;;;;;;;25.50;15.60;;;5.30;99.90;;;;;;5056658;28;20033;-85
2023/03/03 00:15:45;;;;;;;27.88;15.68;;;5.30;99.90;;;;;;5056217;28;20020;-85
2023/03/03 00:18:32;;;;;;;28.27;16.00;;;5.30;99.90;;;;;;5040195;28;20506;-85
2023/03/03 00:21:00;;;;;;;28.60;16.30;;;5.20;99.90;;;;;;5057291;28;20031;-85
2023/03/03 00:23:37;;;;;;;28.73;16.33;;;5.20;99.90;;;;;;5056852;28;20127;-85
2023/03/03 00:26:16;;;;;;;26.67;15.77;;;5.20;99.90;;;;;;5057200;28;20074;-85
2023/03/03 00:28:48;;;;;;;30.23;18.35;;;5.20;99.90;;;;;;5074918;28;20116;-85
2023/03/03 00:31:41;;;;;;;31.17;16.38;;;5.20;99.90;;;;;;5056471;28;20074;-85
2023/03/03 00:34:16;;;;;;;29.30;17.20;;;5.10;99.90;;;;;;5055884;28;20032;-85
2023/03/03 00:36:41;;;;;;;28.08;16.27;;;5.10;99.90;;;;;;5056915;28;20032;-85
2023/03/03 00:39:20;;;;;;;28.27;16.83;;;5.10;99.90;;;;;;5056454;28;20025;-84
2023/03/03 00:41:46;;;;;;;30.67;16.98;;;5.10;99.90;;;;;;5056887;28;20029;-85
2023/03/03 00:44:25;;;;;;;29.17;16.05;;;5.00;99.90;;;;;;5039568;28;20033;-85
2023/03/03 00:46:52;;;;;;;29.42;17.35;;;5.00;99.90;;;;;;5055058;28;20464;-85
2023/03/03 00:49:25;;;;;;;33.05;17.05;;;5.00;99.90;;;;;;5039760;28;20028;-85
2023/03/03 00:51:52;;;;;;;32.72;17.15;;;5.00;99.90;;;;;;5056523;28;20046;-85
2023/03/03 00:54:18;;;;;;;30.38;16.70;;;5.00;99.90;;;;;;5073982;28;20044;-85
2023/03/03 00:56:44;;;;;;;28.23;15.70;;;5.00;99.90;;;;;;5039263;28;20404;-85
2023/03/03 00:59:10;;;;;;;32.45;16.27;;;4.90;99.90;;;;;;5073684;28;20566;-85
2023/03/03 01:01:35;;;;;;;34.20;17.90;;;4.90;99.90;;;;;;5055627;28;20372;-85
2023/03/03 01:04:01;;;;;;;30.63;15.80;;;5.00;99.90;;;;;;5055861;28;20024;-85
2023/03/03 01:06:27;;;;;;;30.98;16.50;;;4.90;99.90;;;;;;5056453;28;20028;-85
2023/03/03 01:08:53;;;;;;;30.15;16.88;;;4.80;99.90;;;;;;5055874;28;20372;-85
2023/03/03 01:11:24;;;;;;;27.95;15.68;;;4.80;99.90;;;;;;5039449;28;20075;-85
2023/03/03 01:13:51;;;;;;;30.30;16.13;;;4.80;99.90;;;;;;5055907;28;20032;-85
2023/03/03 01:16:17;;;;;;;30.35;16.70;;;4.80;99.90;;;;;;5039226;28;20322;-84
2023/03/03 01:18:43;;;;;;;29.13;15.70;;;4.80;99.90;;;;;;5038937;28;20020;-85
2023/03/03 01:21:10;;;;;;;27.33;15.75;;;4.80;99.90;;;;;;5038883;28;20063;-85
2023/03/03 01:23:36;;;;;;;25.65;14.50;;;4.80;99.90;;;;;;5073364;28;20082;-85
2023/03/03 01:26:03;;;;;;;25.70;14.18;;;4.80;99.90;;;;;;5073643;28;20028;-85
2023/03/03 01:28:29;;;;;;;27.63;14.65;;;4.70;99.90;;;;;;5055491;28;20475;-85
2023/03/03 01:31:00;;;;;;;26.13;13.93;;;4.70;99.90;;;;;;5038738;28;20024;-85
2023/03/03 01:33:26;;;;;;;23.55;13.75;;;4.70;99.90;;;;;;5055423;28;20380;-85
2023/03/03 01:35:51;;;;;;;24.88;14.52;;;4.70;99.90;;;;;;5040295;28;20021;-85
2023/03/03 01:38:17;;;;;;;23.98;13.57;;;4.70;99.90;;;;;;5038780;28;20032;-85
2023/03/03 01:41:00;;;;;;;22.83;12.95;;;4.60;99.90;;;;;;5038958;28;20503;-85
2023/03/03 01:43:28;;;;;;;26.60;15.23;;;4.60;99.90;;;;;;5073501;28;20027;-85
2023/03/03 01:45:56;;;;;;;24.50;13.48;;;4.60;99.90;;;;;;5055675;28;20029;-85
2023/03/03 01:48:30;;;;;;;23.98;13.23;;;4.60;99.90;;;;;;5055518;28;20020;-85
2023/03/03 01:51:01;;;;;;;24.52;14.18;;;4.60;99.90;;;;;;5056221;28;20032;-84
2023/03/03 01:53:38;;;;;;;26.17;14.30;;;4.60;99.90;;;;;;5055464;28;20389;-85
2023/03/03 01:56:06;;;;;;;23.20;13.98;;;4.50;99.90;;;;;;5055792;28;20430;-85
2023/03/03 01:58:37;;;;;;;23.15;13.65;;;4.50;99.90;;;;;;5057190;28;20098;-85
2023/03/03 02:01:07;;;;;;;25.23;14.15;;;4.50;99.90;;;;;;5063066;28;20461;-84
2023/03/03 02:03:34;;;;;;;25.57;14.03;;;4.50;99.90;;;;;;5079454;28;20054;-85
2023/03/03 02:06:06;;;;;;;27.38;14.68;;;4.50;99.90;;;;;;5081530;28;20262;-85
2023/03/03 02:08:54;;;;;;;26.92;15.75;;;4.50;99.90;;;;;;5080326;28;20021;-89
2023/03/03 02:11:21;;;;;;;25.10;13.63;;;4.50;99.90;;;;;;5080141;28;20074;-85
2023/03/03 02:13:47;;;;;;;23.35;13.68;;;4.50;99.90;;;;;;5077950;28;20094;-85
2023/03/03 02:16:13;;;;;;;27.25;15.30;;;4.40;99.90;;;;;;5051249;28;20457;-85
2023/03/03 02:18:39;;;;;;;23.85;13.68;;;4.40;99.90;;;;;;5042665;28;20108;-84
2023/03/03 02:21:15;;;;;;;25.80;14.50;;;4.40;99.90;;;;;;5059399;28;20086;-85
2023/03/03 02:24:11;;;;;;;29.55;15.48;;;4.30;99.90;;;;;;5076734;28;20025;-85
2023/03/03 02:26:40;;;;;;;25.67;14.27;;;4.30;99.90;;;;;;5058844;28;20025;-85
2023/03/03 02:29:06;;;;;;;28.05;15.38;;;4.40;99.90;;;;;;5058616;28;20368;-85
2023/03/03 02:31:32;;;;;;;28.38;15.20;;;4.30;99.90;;;;;;5058406;28;20020;-85
2023/03/03 02:33:59;;;;;;;26.30;15.02;;;4.30;99.90;;;;;;5076502;28;20059;-85
2023/03/03 02:36:30;;;;;;;27.33;14.52;;;4.30;99.90;;;;;;5058720;28;20024;-85
2023/03/03 02:39:02;;;;;;;26.05;13.77;;;4.30;99.90;;;;;;5075938;28;20033;-85
2023/03/03 02:41:59;;;;;;;27.27;14.95;;;4.30;99.90;;;;;;5058756;28;20419;-86
2023/03/03 02:44:27;;;;;;;27.77;14.77;;;4.30;99.90;;;;;;5074908;28;20044;-86
2023/03/03 02:46:55;;;;;;;27.15;14.93;;;4.30;99.90;;;;;;5058373;28;20429;-85
2023/03/03 02:49:23;;;;;;;32.33;16.17;;;4.30;99.90;;;;;;5058860;28;20021;-85
2023/03/03 02:51:49;;;;;;;32.30;16.75;;;4.30;99.90;;;;;;5061892;28;20387;-85
2023/03/03 02:54:17;;;;;;;32.83;16.45;;;4.30;99.90;;;;;;5042762;28;20037;-86
2023/03/03 02:56:43;;;;;;;27.85;15.02;;;4.30;99.90;;;;;;5057964;28;20521;-86
2023/03/03 02:59:09;;;;;;;32.40;17.35;;;4.30;99.90;;;;;;5041644;28;20067;-85
2023/03/03 03:01:36;;;;;;;32.30;17.17;;;4.30;99.90;;;;;;5058338;28;20032;-85
2023/03/03 03:04:10;;;;;;;32.17;16.70;;;4.30;99.90;;;;;;5076491;28;20031;-86
2023/03/03 03:06:36;;;;;;;32.08;16.42;;;4.30;99.90;;;;;;5076078;28;20104;-85
2023/03/03 03:09:03;;;;;;;30.73;16.35;;;4.30;99.90;;;;;;5040589;28;20077;-85
2023/03/03 03:11:28;;;;;;;29.75;16.38;;;4.30;99.90;;;;;;5041267;28;20519;-84
2023/03/03 03:13:54;;;;;;;27.88;15.65;;;4.30;99.90;;;;;;5040936;28;20131;-85
2023/03/03 03:16:20;;;;;;;28.35;15.52;;;4.30;99.90;;;;;;5058069;28;20465;-86
2023/03/03 03:18:45;;;;;;;30.35;16.27;;;4.30;99.90;;;;;;5057721;28;20032;-86
2023/03/03 03:21:12;;;;;;;35.00;16.35;;;4.20;99.90;;;;;;5041225;28;20031;-85
2023/03/03 03:23:39;;;;;;;28.02;15.40;;;4.30;99.90;;;;;;5075742;28;20055;-86
2023/03/03 03:26:05;;;;;;;29.52;15.05;;;4.30;99.90;;;;;;5057546;28;20460;-86
2023/03/03 03:28:31;;;;;;;32.53;15.90;;;4.20;99.90;;;;;;5040956;28;20028;-86
2023/03/03 03:30:57;;;;;;;26.80;14.25;;;4.30;99.90;;;;;;5074962;28;20407;-86
2023/03/03 03:33:23;;;;;;;29.85;15.43;;;4.20;99.90;;;;;;5057538;28;20028;-86
2023/03/03 03:35:49;;;;;;;26.88;13.85;;;4.20;99.90;;;;;;5057468;28;20036;-86
2023/03/03 03:38:15;;;;;;;28.60;15.18;;;4.20;99.90;;;;;;5040905;28;20039;-85
2023/03/03 03:40:41;;;;;;;29.27;15.57;;;4.20;99.90;;;;;;5057340;28;20043;-85
2023/03/03 03:43:06;;;;;;;32.90;16.45;;;4.20;99.90;;;;;;5056875;28;20055;-85
2023/03/03 03:45:32;;;;;;;31.02;15.45;;;4.20;99.90;;;;;;5040692;28;20032;-85
2023/03/03 03:47:58;;;;;;;29.77;15.63;;;4.20;99.90;;;;;;5057143;28;20028;-85
2023/03/03 03:50:24;;;;;;;30.27;15.65;;;4.20;99.90;;;;;;5057258;28;20438;-85
2023/03/03 03:52:50;;;;;;;27.83;14.48;;;4.20;99.90;;;;;;5075055;28;20036;-85
2023/03/03 03:55:15;;;;;;;30.15;15.95;;;4.20;99.90;;;;;;5041573;28;20055;-85
2023/03/03 03:57:42;;;;;;;31.00;15.68;;;4.20;99.90;;;;;;5057166;28;20361;-85
2023/03/03 04:00:09;;;;;;;29.92;14.52;;;4.20;99.90;;;;;;5056843;28;20021;-85
2023/03/03 04:02:35;;;;;;;26.98;14.00;;;4.20;99.90;;;;;;5056500;28;20021;-85
2023/03/03 04:05:01;;;;;;;31.90;14.25;;;4.10;99.90;;;;;;5040089;28;20123;-85
2023/03/03 04:07:27;;;;;;;32.55;16.30;;;4.10;99.90;;;;;;5074719;28;20044;-85
2023/03/03 04:09:53;;;;;;;31.75;15.82;;;4.10;99.90;;;;;;5039931;28;20021;-85
2023/03/03 04:12:18;;;;;;;31.98;15.75;;;4.10;99.90;;;;;;5056463;28;20084;-85
2023/03/03 04:14:44;;;;;;;31.20;15.05;;;4.20;99.90;;;;;;5039871;28;20037;-85
2023/03/03 04:17:19;;;;;;;28.50;15.20;;;4.10;99.90;;;;;;5039782;28;20380;-85
2023/03/03 04:19:45;;;;;;;31.83;15.63;;;4.10;99.90;;;;;;5040144;28;20036;-85
2023/03/03 04:22:12;;;;;;;33.72;16.65;;;4.10;99.90;;;;;;5040480;28;20142;-85
2023/03/03 04:24:43;;;;;;;30.88;15.52;;;4.10;99.90;;;;;;5056450;28;20085;-85
2023/03/03 04:27:09;;;;;;;;;;;4.10;99.90;;;;;;5057172;28;20352;-85
2023/03/03 04:29:35;;;;;;;32.58;15.23;;;4.20;99.90;;;;;;5040114;28;20367;-85
2023/03/03 04:32:00;;;;;;;33.38;16.60;;;4.10;99.90;;;;;;5039767;28;20024;-86
2023/03/03 04:34:26;;;;;;;35.05;15.68;;;4.10;99.90;;;;;;5039814;28;20090;-87
2023/03/03 04:36:52;;;;;;;34.40;15.93;;;4.10;99.90;;;;;;5056424;28;20024;-87
2023/03/03 04:39:17;;;;;;;33.10;16.67;;;4.10;99.90;;;;;;5039858;28;20431;-86
2023/03/03 04:41:43;;;;;;;31.73;15.15;;;4.10;99.90;;;;;;5039922;28;20358;-86
2023/03/03 04:44:09;;;;;;;33.08;15.40;;;4.10;99.90;;;;;;5039966;28;20033;-86
2023/03/03 04:46:34;;;;;;;35.50;16.48;;;4.10;99.90;;;;;;5039611;28;20020;-87
2023/03/03 04:49:00;;;;;;;35.38;16.75;;;4.10;99.90;;;;;;5039323;28;20074;-86
2023/03/03 04:51:26;;;;;;;36.70;17.08;;;4.10;99.90;;;;;;5039483;28;20060;-86
2023/03/03 04:53:51;;;;;;;32.72;16.70;;;4.10;99.90;;;;;;5056219;28;20382;-86
2023/03/03 04:56:17;;;;;;;32.78;15.35;;;4.10;99.90;;;;;;5039438;28;20020;-86
2023/03/03 04:58:43;;;;;;;34.95;16.83;;;4.10;99.90;;;;;;5073938;28;20032;-87
2023/03/03 05:01:13;;;;;;;32.72;14.98;;;4.10;99.90;;;;;;5040303;28;20047;-86
2023/03/03 05:03:39;;;;;;;32.15;15.35;;;4.10;99.90;;;;;;5074573;28;20029;-86
2023/03/03 05:06:06;;;;;;;34.78;16.15;;;4.10;99.90;;;;;;5057171;28;20021;-87
2023/03/03 05:08:31;;;;;;;35.88;16.55;;;4.10;99.90;;;;;;5056966;28;20372;-86
2023/03/03 05:10:58;;;;;;;34.70;16.85;;;4.10;99.90;;;;;;5060476;28;20024;-87
2023/03/03 05:13:26;;;;;;;30.33;15.32;;;4.10;99.90;;;;;;5054856;28;20056;-86
2023/03/03 05:15:56;;;;;;;35.38;16.38;;;4.10;99.90;;;;;;5076816;28;20008;-87
2023/03/03 05:18:27;;;;;;;38.22;17.17;;;4.10;99.90;;;;;;5063966;28;20081;-85
2023/03/03 05:20:53;;;;;;;35.28;17.05;;;4.10;99.90;;;;;;5063736;28;20032;-86
2023/03/03 05:23:19;;;;;;;33.15;16.38;;;4.10;99.90;;;;;;5080333;28;20024;-86
2023/03/03 05:25:49;;;;;;;35.72;17.00;;;4.10;99.90;;;;;;5079241;28;20028;-86
2023/03/03 05:28:15;;;;;;;32.17;15.57;;;4.10;99.90;;;;;;5075204;28;20020;-86
2023/03/03 05:30:41;;;;;;;36.78;17.08;;;4.10;99.90;;;;;;5064135;28;20033;-85
2023/03/03 05:33:06;;;;;;;35.25;17.25;;;4.10;99.90;;;;;;5042131;28;20488;-85
2023/03/03 05:35:33;;;;;;;32.47;15.52;;;4.10;99.90;;;;;;5061593;28;20112;-85
2023/03/03 05:37:58;;;;;;;32.78;16.10;;;4.10;99.90;;;;;;5060796;28;20028;-88
2023/03/03 05:40:25;;;;;;;35.70;17.23;;;4.10;99.90;;;;;;5059717;28;20017;-85
2023/03/03 05:42:51;;;;;;;36.13;16.90;;;4.10;99.90;;;;;;5043088;28;20050;-87
2023/03/03 05:45:20;;;;;;;38.85;17.63;;;4.10;99.90;;;;;;5077462;28;20051;-85
2023/03/03 05:47:47;;;;;;;37.80;17.30;;;4.10;99.90;;;;;;5043682;28;20040;-85
2023/03/03 05:50:13;;;;;;;37.70;19.20;;;4.10;99.90;;;;;;5042697;28;20031;-86
2023/03/03 05:52:39;;;;;;;35.45;17.70;;;4.10;99.90;;;;;;5042682;28;20032;-85
2023/03/03 05:55:05;;;;;;;33.33;16.33;;;4.10;99.90;;;;;;5059324;28;20043;-86
2023/03/03 05:57:30;;;;;;;33.42;16.30;;;4.10;99.90;;;;;;5042623;28;20025;-86
2023/03/03 05:59:56;;;;;;;29.10;14.65;;;4.20;99.90;;;;;;5059585;28;20025;-86
2023/03/03 06:02:22;;;;;;;31.38;14.63;;;4.20;99.90;;;;;;5059054;28;20098;-86
2023/03/03 06:04:50;;;;;;;36.30;16.27;;;4.20;99.90;;;;;;5077096;28;20403;-86
2023/03/03 06:07:15;;;;;;;29.55;14.50;;;4.10;99.90;;;;;;5059026;28;20031;-85
2023/03/03 06:09:41;;;;;;;27.42;14.25;;;4.10;99.90;;;;;;5043253;28;20115;-85
2023/03/03 06:12:06;;;;;;;27.33;13.65;;;4.10;99.90;;;;;;5042308;28;20056;-88
2023/03/03 06:14:32;;;;;;;31.48;13.75;;;4.10;99.90;;;;;;5042468;28;20098;-87
2023/03/03 06:16:58;;;;;;;27.67;13.85;;;4.10;99.90;;;;;;5059319;28;20435;-87
2023/03/03 06:19:24;;;;;;;26.58;12.05;;;4.10;99.90;;;;;;5076980;28;20116;-86
2023/03/03 06:21:49;;;;;;;24.92;12.82;;;4.10;99.90;;;;;;5043436;28;20029;-86
2023/03/03 06:24:15;;;;;;;24.10;12.82;;;4.00;99.90;;;;;;5044421;28;20032;-86
2023/03/03 06:26:41;;;;;;;25.95;12.35;;;4.00;99.90;;;;;;5059915;28;20024;-86
2023/03/03 06:29:07;;;;;;;24.77;12.18;;;4.00;99.90;;;;;;5059461;28;20029;-87
2023/03/03 06:31:32;;;;;;;22.52;11.52;;;4.00;99.90;;;;;;5042508;28;20024;-87
2023/03/03 06:33:58;;;;;;;23.02;11.27;;;4.00;99.90;;;;;;5059424;28;20043;-87
2023/03/03 06:36:24;;;;;;;23.02;10.77;;;4.00;99.90;;;;;;5042755;28;20365;-86
2023/03/03 06:38:50;;;;;;;23.35;12.02;;;4.00;99.90;;;;;;5059449;28;20383;-86
2023/03/03 06:41:16;;;;;;;22.55;10.88;;;4.00;99.90;;;;;;5059527;28;20434;-87
2023/03/03 06:43:42;;;;;;;22.58;10.88;;;4.00;99.90;;;;;;5058658;28;20035;-86
2023/03/03 06:46:08;;;;;;;22.77;12.63;;;4.00;99.90;;;;;;5041895;28;20074;-86
2023/03/03 06:48:33;;;;;;;23.00;10.27;;;4.00;99.90;;;;;;5041773;28;20035;-86
2023/03/03 06:51:01;;;;;;;25.60;12.18;;;4.00;99.90;;;;;;5041842;28;20031;-86
2023/03/03 06:53:27;;;;;;;24.30;11.85;;;4.00;99.90;;;;;;5075820;28;20064;-87
2023/03/03 06:55:54;;;;;;;24.77;12.07;;;4.00;99.90;;;;;;5043299;28;20024;-87
2023/03/03 06:58:21;;;;;;;22.25;11.73;;;4.00;99.90;;;;;;5058872;28;20024;-87
2023/03/03 07:00:56;;;;;;;23.27;11.52;;;4.00;99.90;;;;;;5077043;28;20082;-86
2023/03/03 07:03:24;;;;;;;25.38;11.55;;;4.00;99.90;;;;;;5077074;28;20021;-87
2023/03/03 07:05:52;;;;;;;24.13;12.00;;;4.00;99.90;;;;;;5077520;28;20067;-87
2023/03/03 07:08:21;;;;;;;18.98;9.15;;;4.00;99.90;;;;;;5059204;28;20036;-87
2023/03/03 07:10:47;;;;;;;18.35;9.63;;;4.00;99.90;;;;;;5060538;28;20475;-86
2023/03/03 07:13:22;;;;;;;17.67;8.52;;;4.00;99.90;;;;;;5041828;28;20053;-88
2023/03/03 07:15:50;;;;;;;15.60;7.88;;;4.00;99.90;;;;;;5058492;28;20422;-86
2023/03/03 07:18:44;;;;;;;18.20;7.88;;;4.00;99.90;;;;;;5059513;28;20025;-87
2023/03/03 07:21:30;;;;;;;15.48;6.97;;;4.00;99.90;;;;;;5083132;28;20023;-87
2023/03/03 07:23:58;;;;;;;15.00;6.90;;;4.00;99.90;;;;;;5078218;28;20028;-87
2023/03/03 07:26:31;;;;;;;17.17;7.93;;;4.00;99.90;;;;;;5044897;28;20020;-85
2023/03/03 07:29:02;;;;;;;14.95;7.25;;;4.00;99.90;;;;;;5077759;28;20017;-85
2023/03/03 07:31:35;;;;;;;15.70;7.82;;;4.00;99.90;;;;;;5058963;28;20023;-85
2023/03/03 07:34:13;;;;;;;13.10;6.88;;;4.00;99.90;;;;;;5058769;28;20037;-86
2023/03/03 07:36:39;;;;;;;17.35;6.90;;;4.00;99.90;;;;;;5058576;28;20028;-86
2023/03/03 07:39:35;;;;;;;18.10;7.03;;;4.00;99.90;;;;;;5057857;28;20027;-86
2023/03/03 07:42:28;;;;;;;16.65;7.70;;;4.10;99.90;;;;;;5059648;28;20487;-86
2023/03/03 07:44:56;;;;;;;14.35;7.53;;;4.10;99.90;;;;;;5048096;28;20044;-88
2023/03/03 07:47:34;;;;;;;15.07;7.53;;;4.10;99.90;;;;;;5058504;28;20372;-87
2023/03/03 07:50:12;;;;;;;18.40;9.00;;;4.10;99.90;;;;;;5058015;28;20102;-88
2023/03/03 07:52:42;;;;;;;16.45;7.00;;;4.10;99.90;;;;;;5057624;28;20024;-87
2023/03/03 07:55:31;;;;;;;16.83;8.05;;;4.10;99.90;;;;;;5057901;28;20029;-86
2023/03/03 07:58:15;;;;;;;17.90;8.18;;;4.10;99.90;;;;;;5057145;28;20593;-86
2023/03/03 08:01:18;;;;;;;14.77;7.68;;;4.20;99.90;;;;;;5059559;28;20375;-87
2023/03/03 08:03:45;;;;;;;18.35;8.65;;;4.10;99.90;;;;;;5058446;28;20070;-87
2023/03/03 08:06:31;;;;;;;19.10;9.02;;;4.10;99.90;;;;;;5041651;28;20457;-86
2023/03/03 08:09:11;;;;;;;18.90;9.50;;;4.10;99.90;;;;;;5076358;28;20025;-88
2023/03/03 08:12:00;;;;;;;20.60;9.40;;;4.20;99.90;;;;;;5095590;28;20024;-88
2023/03/03 08:14:32;;;;;;;20.67;9.35;;;4.20;99.90;;;;;;5065117;28;20126;-88
2023/03/03 08:16:59;;;;;;;18.38;8.57;;;4.20;99.90;;;;;;5089438;28;20060;-92
2023/03/03 08:19:26;;;;;;;20.02;9.10;;;4.20;99.90;;;;;;5068838;28;20032;-88
2023/03/03 08:21:58;;;;;;;25.42;9.95;;;4.20;99.90;;;;;;5072868;28;20024;-88
2023/03/03 08:24:24;;;;;;;21.70;10.50;;;4.20;99.90;;;;;;5096321;28;20061;-88
2023/03/03 08:26:50;;;;;;;19.75;9.43;;;4.30;99.90;;;;;;5079981;28;20103;-88
2023/03/03 08:29:15;;;;;;;20.45;10.27;;;4.30;99.90;;;;;;5059780;28;20024;-87
2023/03/03 08:31:41;;;;;;;17.33;8.20;;;4.30;99.90;;;;;;5075692;28;20028;-85
2023/03/03 08:34:07;;;;;;;18.30;8.70;;;4.30;99.90;;;;;;5067427;28;20032;-89
2023/03/03 08:36:32;;;;;;;19.13;9.38;;;4.40;99.90;;;;;;5075192;28;20376;-87
2023/03/03 08:38:58;;;;;;;20.00;9.15;;;4.40;99.90;;;;;;5060797;28;20237;-88
2023/03/03 08:41:24;;;;;;;17.67;8.65;;;4.40;99.90;;;;;;5077826;28;20032;-86
2023/03/03 08:43:49;;;;;;;16.80;9.02;;;4.40;99.90;;;;;;5076109;28;20063;-86
2023/03/03 08:46:15;;;;;;;15.27;7.45;;;4.40;99.90;;;;;;5058846;28;20059;-85
2023/03/03 08:48:41;;;;;;;15.38;7.18;;;4.50;99.90;;;;;;5074920;28;20103;-85
2023/03/03 08:51:06;;;;;;;14.77;6.80;;;4.50;99.90;;;;;;5091993;28;20027;-85
2023/03/03 08:53:35;;;;;;;13.98;6.32;;;4.50;99.90;;;;;;5070334;28;20055;-85
2023/03/03 08:56:02;;;;;;;16.42;6.82;;;4.50;99.90;;;;;;5033257;28;20115;-85
2023/03/03 08:58:28;;;;;;;12.02;6.22;;;4.50;99.90;;;;;;5066328;28;20065;-85
2023/03/03 09:00:57;;;;;;;13.25;6.35;;;4.60;99.90;;;;;;5071462;28;20384;-85
2023/03/03 09:03:23;;;;;;;14.57;6.22;;;4.60;99.90;;;;;;5054502;28;20025;-85
2023/03/03 09:05:49;;;;;;;13.32;5.78;;;4.60;99.90;;;;;;5074595;28;20035;-85
2023/03/03 09:08:14;;;;;;;11.30;5.88;;;4.60;99.90;;;;;;5052058;28;20028;-87
2023/03/03 09:10:40;;;;;;;16.90;6.40;;;4.70;99.90;;;;;;5055063;28;20024;-85
2023/03/03 09:13:14;;;;;;;14.90;6.68;;;4.60;99.90;;;;;;5067290;28;20047;-86
2023/03/03 09:15:39;;;;;;;13.45;6.32;;;4.70;99.90;;;;;;5082491;28;20036;-86
2023/03/03 09:18:14;;;;;;;13.52;7.13;;;4.70;99.90;;;;;;5062373;28;20025;-85
2023/03/03 09:20:43;;;;;;;13.15;6.78;;;4.70;99.90;;;;;;5074318;28;20062;-85
2023/03/03 09:23:32;;;;;;;14.10;6.25;;;4.80;99.90;;;;;;5085446;28;20468;-86
2023/03/03 09:26:25;;;;;;;11.77;6.50;;;4.80;99.90;;;;;;5064952;28;20020;-85
2023/03/03 09:29:14;;;;;;;13.30;5.88;;;4.80;99.90;;;;;;5072255;28;20031;-88
2023/03/03 09:31:48;;;;;;;12.80;6.15;;;4.80;99.90;;;;;;5048310;28;20038;-87
2023/03/03 09:34:34;;;;;;;13.60;6.28;;;4.90;99.90;;;;;;5067462;28;20028;-86
2023/03/03 09:37:00;;;;;;;13.10;6.50;;;4.90;99.90;;;;;;5078806;28;20078;-86
2023/03/03 09:39:29;;;;;;;13.07;6.50;;;5.00;99.90;;;;;;5068548;28;20055;-85
2023/03/03 09:42:32;;;;;;;11.77;6.35;;;5.00;99.90;;;;;;5071826;28;20036;-86
2023/03/03 09:45:14;;;;;;;13.93;6.20;;;5.00;99.90;;;;;;5079297;28;20078;-85
2023/03/03 09:48:18;;;;;;;13.57;6.03;;;5.10;99.90;;;;;;5071212;28;20126;-85
2023/03/03 09:51:05;;;;;;;10.82;5.43;;;5.10;99.90;;;;;;5068228;28;20027;-85
2023/03/03 09:53:49;;;;;;;11.70;6.22;;;5.10;99.90;;;;;;5073963;28;20083;-85
2023/03/03 09:56:54;;;;;;;10.88;5.65;;;5.20;99.90;;;;;;5072384;28;20125;-86
2023/03/03 09:59:33;;;;;;;10.93;5.32;;;5.20;99.90;;;;;;5060639;28;20147;-87
2023/03/03 10:02:27;;;;;;;10.95;5.22;;;5.30;99.90;;;;;;5087990;28;20024;-85
2023/03/03 10:05:31;;;;;;;11.55;5.45;;;5.30;99.90;;;;;;5060351;28;20092;-84
2023/03/03 10:08:09;;;;;;;11.13;5.30;;;5.40;99.90;;;;;;5068252;28;20468;-85
2023/03/03 10:10:47;;;;;;;10.98;5.15;;;5.50;99.90;;;;;;5062742;28;20017;-85
2023/03/03 10:13:25;;;;;;;11.18;5.43;;;5.60;99.90;;;;;;5071078;28;20379;-84
2023/03/03 10:16:10;;;;;;;10.65;5.35;;;5.70;99.90;;;;;;5074426;28;20043;-85
2023/03/03 10:18:48;;;;;;;10.07;4.93;;;5.70;99.90;;;;;;5065782;28;20024;-85
2023/03/03 10:21:27;;;;;;;7.97;4.80;;;5.80;99.90;;;;;;5073406;28;20027;-85
2023/03/03 10:24:15;;;;;;;9.80;4.85;;;5.80;99.90;;;;;;5077761;28;20028;-84
2023/03/03 10:26:56;;;;;;;8.80;4.65;;;5.90;99.90;;;;;;5085984;28;20027;-82
2023/03/03 10:29:46;;;;;;;8.88;4.30;;;5.90;99.90;;;;;;5074464;28;20379;-85
2023/03/03 10:32:37;;;;;;;8.80;5.00;;;6.00;99.90;;;;;;5077014;28;20027;-84
2023/03/03 10:35:23;;;;;;;9.40;4.43;;;6.00;99.90;;;;;;5070854;28;20314;-84
2023/03/03 10:38:00;;;;;;;8.23;4.35;;;6.00;99.90;;;;;;5068202;28;20028;-85
2023/03/03 10:40:49;;;;;;;10.65;4.90;;;6.10;99.90;;;;;;5065797;28;20111;-85
2023/03/03 10:43:37;;;;;;;8.88;5.03;;;6.10;99.90;;;;;;5074535;28;20032;-83
2023/03/03 10:46:14;;;;;;;9.07;4.70;;;6.10;99.90;;;;;;5076174;28;20060;-84
2023/03/03 10:49:05;;;;;;;10.32;5.20;;;6.20;99.90;;;;;;5088222;28;20020;-84
2023/03/03 10:52:03;;;;;;;8.88;4.43;;;6.20;99.90;;;;;;5085578;28;20039;-84
2023/03/03 10:54:51;;;;;;;9.75;4.88;;;6.30;99.90;;;;;;5071642;28;20031;-86
2023/03/03 10:57:38;;;;;;;8.63;4.70;;;6.30;99.90;;;;;;5094672;28;20032;-86
2023/03/03 11:00:21;;;;;;;8.70;4.43;;;6.30;99.90;;;;;;5074131;28;20410;-85
2023/03/03 11:03:18;;;;;;;10.18;4.78;;;6.30;99.90;;;;;;5074057;28;20024;-84
2023/03/03 11:06:14;;;;;;;8.38;4.90;;;6.40;99.90;;;;;;5087946;28;20096;-83
2023/03/03 11:09:04;;;;;;;9.38;4.68;;;6.50;99.90;;;;;;5075627;28;20032;-84
2023/03/03 11:11:49;;;;;;;9.45;4.45;;;6.60;99.90;;;;;;5071227;28;20020;-83
2023/03/03 11:14:26;;;;;;;10.88;5.15;;;6.60;99.90;;;;;;5072051;28;20483;-84
2023/03/03 11:17:03;;;;;;;7.25;3.90;;;6.70;99.90;;;;;;5086674;28;20075;-84
2023/03/03 11:19:51;;;;;;;9.40;5.05;;;6.70;99.90;;;;;;5073896;28;20027;-84
2023/03/03 11:22:46;;;;;;;11.23;4.57;;;6.80;99.90;;;;;;5074909;28;20490;-83
2023/03/03 11:25:41;;;;;;;8.10;3.92;;;6.90;99.90;;;;;;5050307;28;20040;-85
2023/03/03 11:28:20;;;;;;;10.27;5.13;;;7.00;99.90;;;;;;5090700;28;20073;-83
2023/03/03 11:30:57;;;;;;;9.77;5.20;;;7.10;99.90;;;;;;5089221;28;20020;-84
2023/03/03 11:33:36;;;;;;;12.15;5.25;;;7.20;99.90;;;;;;5072348;28;20039;-84
2023/03/03 11:36:01;;;;;;;10.20;4.60;;;7.30;99.90;;;;;;5075039;28;20074;-84
2023/03/03 11:38:38;;;;;;;8.73;4.30;;;7.40;99.90;;;;;;5093576;28;20028;-82
2023/03/03 11:41:11;;;;;;;9.45;4.15;;;7.40;99.90;;;;;;5077161;28;20502;-85
2023/03/03 11:44:14;;;;;;;8.15;4.70;;;7.50;99.90;;;;;;5083323;28;20028;-85
2023/03/03 11:46:49;;;;;;;13.30;5.00;;;7.60;99.90;;;;;;5068063;28;20081;-89
2023/03/03 11:49:18;;;;;;;8.32;3.90;;;7.70;99.90;;;;;;5077236;28;20440;-84
2023/03/03 11:51:49;;;;;;;9.50;3.80;;;7.70;99.90;;;;;;5087754;28;20050;-84
2023/03/03 11:54:50;;;;;;;5.95;3.60;;;7.80;99.90;;;;;;5079492;28;20028;-85
2023/03/03 11:57:16;;;;;;;5.40;3.17;;;7.90;99.90;;;;;;5073465;28;20050;-85
2023/03/03 12:00:29;;;;;;;5.28;3.13;;;8.00;99.90;;;;;;5075198;28;20032;-89
2023/03/03 12:03:42;;;;;;;6.85;3.10;;;8.10;99.90;;;;;;5014802;28;20030;-86
2023/03/03 12:06:10;;;;;;;6.32;3.30;;;8.20;99.90;;;;;;5082052;28;20045;-84
2023/03/03 12:08:42;;;;;;;6.38;2.80;;;8.40;99.90;;;;;;5066430;28;20028;-85
2023/03/03 12:11:18;;;;;;;8.18;3.35;;;8.50;99.90;;;;;;5067340;28;20024;-85
2023/03/03 12:14:02;;;;;;;5.18;2.75;;;8.60;99.90;;;;;;5069150;28;20044;-88
2023/03/03 12:16:46;;;;;;;5.70;3.30;;;8.70;99.90;;;;;;5073500;28;20028;-85
2023/03/03 12:19:14;;;;;;;6.72;3.30;;;8.90;99.90;;;;;;5069527;28;20031;-85
2023/03/03 12:22:02;;;;;;;5.80;3.10;;;9.00;99.90;;;;;;5077042;28;20462;-84
2023/03/03 12:24:59;;;;;;;7.45;3.42;;;9.10;99.90;;;;;;5077360;28;20032;-86
2023/03/03 12:27:44;;;;;;;4.80;2.90;;;9.20;99.90;;;;;;5040986;28;20027;-85
2023/03/03 12:30:16;;;;;;;6.95;2.80;;;9.30;99.90;;;;;;5072417;28;20020;-85
2023/03/03 12:32:59;;;;;;;3.75;2.13;;;9.30;99.90;;;;;;5076299;28;20031;-86
2023/03/03 12:35:43;;;;;;;4.00;2.20;;;9.40;99.90;;;;;;5086582;28;20035;-85
2023/03/03 12:38:51;;;;;;;4.43;2.00;;;9.50;99.90;;;;;;5077507;28;20502;-85
2023/03/03 12:41:26;;;;;;;4.57;2.60;;;9.50;99.90;;;;;;5077888;28;20046;-84
2023/03/03 12:44:12;;;;;;;3.15;2.00;;;9.60;99.90;;;;;;5072147;28;20020;-84
2023/03/03 12:46:51;;;;;;;4.55;2.40;;;9.60;99.90;;;;;;5091295;28;20032;-84
2023/03/03 12:49:17;;;;;;;5.18;2.80;;;9.70;99.90;;;;;;5074118;28;20048;-84
2023/03/03 12:52:07;;;;;;;4.30;2.47;;;9.80;99.90;;;;;;5048041;28;20381;-84
2023/03/03 12:54:59;;;;;;;6.82;3.03;;;9.90;99.90;;;;;;5071534;28;20072;-84
2023/03/03 12:57:44;;;;;;;6.35;2.78;;;9.90;99.90;;;;;;5088413;28;20028;-85
2023/03/03 13:00:10;;;;;;;4.05;2.58;;;10.00;99.90;;;;;;5069681;28;20028;-84
2023/03/03 13:02:55;;;;;;;5.40;2.55;;;10.00;99.90;;;;;;5075923;28;20035;-85
2023/03/03 13:05:34;;;;;;;5.30;2.85;;;10.10;99.90;;;;;;5075254;28;20051;-85
2023/03/03 13:08:30;;;;;;;7.40;2.33;;;10.20;99.90;;;;;;5074658;28;20092;-85
2023/03/03 13:11:14;;;;;;;4.28;2.10;;;10.20;99.90;;;;;;5075207;28;20032;-85
2023/03/03 13:14:03;;;;;;;3.80;1.95;;;10.40;99.90;;;;;;5067403;28;20135;-85